Whitharral, Texas
Current Conditions -  °F | °C
As of 1:53 PM on Sunday 23 Nov 2014 (Local Time) from KLBB Reporting Station
Scattered Clouds Scattered Clouds  
Wind Chill: 63°   Ceiling: Unl
Heat Index: 63°   Visibility: 10mi
Dew Point: 29°   Wind: 23mph
Humidity: 28%   Direction: 360°N
Pressure: 29.59"   Gusts: 33mph
Location:  33.74°N, 102.33°W
Report Text: KLBB 231953Z 36020G29KT 10SM FEW050 SCT080 17/M02 A2959 RMK AO2 PK WND 36029/1951 SLP993 T01721017
Loading
Personal Weather Stations






























Interactive Weather Map New forecast layout! Learn more

10-Day Weather Forecast

Advertisements
Track Severe Weather on mobile